Diamond, Missouri
Current Conditions -  °F | °C
As of 8:53 AM on Thursday 18 Dec 2014 (Local Time) from KJLN Reporting Station
Haze Haze  
Wind Chill: 36°   Ceiling: 600
Heat Index: 36°   Visibility: 5mi
Dew Point: 35°   Wind: 3mph
Humidity: 97%   Direction: 80°E
Pressure: 30.2"   Gusts: NA
Location:  37°N, 94.32°W
Report Text: KJLN 181453Z 08003KT 5SM BR OVC006 02/02 A3020 RMK AO2 SLP231 T00220017 53010
Loading
Personal Weather Stations






























Interactive Weather Map New forecast layout! Learn more

10-Day Weather Forecast

Advertisements
Track Severe Weather on mobile